^^
Saratoga-Weather Station Historical Data
Daily Summary for September 26, 2022 Units:  Metric    English   Both
Daily Weekly Monthly Yearly Custom
  High: Low: Average:
Temperature: 15.3 °C 7.3 °C 10.5 °C
Dew Point: 9.5 °C 5.6 °C 7.9 °C
Humidity: 93% 62% 85%
Wind Speed: 16.3km/h 0km/h 3.7km/h
Wind Gust: 29km/h - -
Wind- - WSW
Pressure: 1012.2 hPa 998.3 hPa -
Precipitation: 7.9 mm    
Historical Graphs
 
 
Tabular Data for September 26, 2022
Time Temperature Dew Point Pressure Wind Wind Speed Wind Gust Humidity Rainfall Rate (Hourly) solar
00:04 8.7 °C 6.8 °C 1012.2 hPa Calm   1.6 km/h 88% 0.0 mm 0 W/m2
00:09 8.7 °C 6.7 °C 1012.2 hPa Calm   3.2 km/h 87% 0.0 mm 0 W/m2
00:14 8.9 °C 6.9 °C 1012.2 hPa NW 1.4 km/h 1.6 km/h 87% 0.0 mm 0 W/m2
00:19 9.1 °C 6.9 °C 1012.2 hPa NW 1.4 km/h 1.6 km/h 86% 0.0 mm 0 W/m2
00:24 9.1 °C 6.9 °C 1012.2 hPa Calm   3.2 km/h 86% 0.0 mm 0 W/m2
00:29 9 °C 6.8 °C 1012.2 hPa Calm   1.6 km/h 86% 0.0 mm 0 W/m2
00:34 8.9 °C 6.7 °C 1012.2 hPa Calm   3.2 km/h 86% 0.0 mm 0 W/m2
00:39 8.8 °C 6.6 °C 1012.2 hPa Calm     86% 0.0 mm 0 W/m2
00:44 8.7 °C 6.5 °C 1011.9 hPa Calm     86% 0.0 mm 0 W/m2
00:49 8.5 °C 6.3 °C 1011.9 hPa Calm     86% 0.0 mm 0 W/m2
00:54 8.3 °C 6.1 °C 1011.9 hPa Calm     86% 0.0 mm 0 W/m2
00:59 8.2 °C 6.2 °C 1011.9 hPa Calm     87% 0.0 mm 0 W/m2
01:04 8.1 °C 6.1 °C 1011.9 hPa Calm     87% 0.0 mm 0 W/m2
01:09 7.9 °C 5.9 °C 1011.9 hPa Calm     87% 0.0 mm 0 W/m2
01:14 7.8 °C 5.9 °C 1011.9 hPa Calm     88% 0.0 mm 0 W/m2
01:19 7.7 °C 5.8 °C 1011.9 hPa Calm     88% 0.0 mm 0 W/m2
01:24 7.6 °C 5.9 °C 1011.9 hPa Calm     89% 0.0 mm 0 W/m2
01:29 7.5 °C 5.8 °C 1011.9 hPa Calm     89% 0.0 mm 0 W/m2
01:34 7.4 °C 5.7 °C 1011.5 hPa Calm     89% 0.0 mm 0 W/m2
01:39 7.3 °C 5.6 °C 1011.5 hPa Calm     89% 0.0 mm 0 W/m2
01:44 7.3 °C 5.6 °C 1011.5 hPa Calm     89% 0.0 mm 0 W/m2
01:49 7.3 °C 5.8 °C 1011.5 hPa Calm   1.6 km/h 90% 0.0 mm 0 W/m2
01:54 7.3 °C 5.9 °C 1011.5 hPa Calm   3.2 km/h 91% 0.0 mm 0 W/m2
01:59 7.6 °C 6.2 °C 1011.5 hPa WNW 3.2 km/h 6.4 km/h 91% 0.0 mm 0 W/m2
02:04 7.8 °C 6.6 °C 1011.5 hPa WNW 3.2 km/h 4.8 km/h 92% 0.0 mm 0 W/m2
02:09 8.3 °C 7.1 °C 1011.5 hPa West 3.2 km/h 6.4 km/h 92% 0.0 mm 0 W/m2
02:14 8.7 °C 7.2 °C 1011.5 hPa NW 1.4 km/h 4.8 km/h 90% 0.0 mm 0 W/m2
02:19 8.8 °C 6.9 °C 1011.5 hPa NW 1.4 km/h 6.4 km/h 88% 0.0 mm 0 W/m2
02:24 8.7 °C 6.7 °C 1011.5 hPa WSW 3.2 km/h 4.8 km/h 87% 0.0 mm 0 W/m2
02:29 8.4 °C 6.5 °C 1011.5 hPa WSW 3.2 km/h 3.2 km/h 88% 0.0 mm 0 W/m2
02:34 8.3 °C 6.4 °C 1011.2 hPa WSW 1.4 km/h 3.2 km/h 88% 0.0 mm 0 W/m2
02:39 8.3 °C 6.4 °C 1011.2 hPa Calm     88% 0.0 mm 0 W/m2
02:44 8.3 °C 6.6 °C 1011.2 hPa WSW 3.2 km/h 3.2 km/h 89% 0.0 mm 0 W/m2
02:49 8.2 °C 6.5 °C 1011.2 hPa WNW 1.4 km/h 3.2 km/h 89% 0.0 mm 0 W/m2
02:54 8.4 °C 6.7 °C 1010.8 hPa WNW 1.4 km/h 6.4 km/h 89% 0.0 mm 0 W/m2
02:59 8.6 °C 6.7 °C 1010.8 hPa WNW 1.4 km/h 4.8 km/h 88% 0.0 mm 0 W/m2
03:04 8.7 °C 6.8 °C 1010.8 hPa WNW 3.2 km/h 4.8 km/h 88% 0.0 mm 0 W/m2
03:09 8.9 °C 7 °C 1010.8 hPa WNW 3.2 km/h 4.8 km/h 88% 0.0 mm 0 W/m2
03:14 9.1 °C 7.1 °C 1010.8 hPa West 9.7 km/h 9.7 km/h 87% 0.0 mm 0 W/m2
03:19 9.3 °C 7.2 °C 1010.8 hPa WNW 3.2 km/h 8 km/h 87% 0.0 mm 0 W/m2
03:25 9.5 °C 7.3 °C 1010.8 hPa West 9.7 km/h 9.7 km/h 86% 0.0 mm 0 W/m2
03:30 9.6 °C 7.4 °C 1010.8 hPa SSW 6.4 km/h 9.7 km/h 86% 0.0 mm 0 W/m2
03:35 9.6 °C 7.2 °C 1010.8 hPa WNW 3.2 km/h 9.7 km/h 85% 0.0 mm 0 W/m2
03:40 9.6 °C 7.2 °C 1010.8 hPa West 3.2 km/h 4.8 km/h 85% 0.0 mm 0 W/m2
03:45 9.6 °C 7.4 °C 1010.5 hPa West 3.2 km/h 9.7 km/h 86% 0.0 mm 0 W/m2
03:50 9.4 °C 7.2 °C 1010.5 hPa WSW 1.4 km/h 4.8 km/h 86% 0.0 mm 0 W/m2
03:55 9.4 °C 7.2 °C 1010.5 hPa NW 1.4 km/h 1.6 km/h 86% 0.0 mm 0 W/m2
04:00 9.3 °C 7.1 °C 1010.5 hPa NW 1.4 km/h 4.8 km/h 86% 0.0 mm 0 W/m2
04:05 9.1 °C 6.9 °C 1010.5 hPa Calm   1.6 km/h 86% 0.0 mm 0 W/m2
04:10 8.9 °C 6.7 °C 1010.5 hPa WNW 3.2 km/h 6.4 km/h 86% 0.0 mm 0 W/m2
04:15 8.8 °C 6.8 °C 1010.5 hPa Calm   3.2 km/h 87% 0.0 mm 0 W/m2
04:20 8.7 °C 6.7 °C 1010.5 hPa SW 3.2 km/h 6.4 km/h 87% 0.0 mm 0 W/m2
04:25 8.8 °C 6.9 °C 1010.2 hPa WNW 4.7 km/h 11.3 km/h 88% 0.0 mm 0 W/m2
04:30 8.8 °C 6.9 °C 1010.2 hPa NW 3.2 km/h 11.3 km/h 88% 0.0 mm 0 W/m2
04:35 8.9 °C 7 °C 1010.2 hPa Calm   3.2 km/h 88% 0.0 mm 0 W/m2
04:40 8.9 °C 7 °C 1010.2 hPa WNW 1.4 km/h 11.3 km/h 88% 0.0 mm 0 W/m2
04:45 8.8 °C 6.8 °C 1010.2 hPa Calm   1.6 km/h 87% 0.0 mm 0 W/m2
04:50 8.6 °C 6.6 °C 1010.2 hPa Calm   3.2 km/h 87% 0.0 mm 0 W/m2
04:55 8.4 °C 6.5 °C 1009.8 hPa West 3.2 km/h 6.4 km/h 88% 0.0 mm 0 W/m2
05:00 8.4 °C 6.7 °C 1009.8 hPa WNW 3.2 km/h 8 km/h 89% 0.0 mm 0 W/m2
05:05 8.5 °C 6.8 °C 1009.8 hPa WNW 11.3 km/h 11.3 km/h 89% 0.0 mm 0 W/m2
05:10 8.5 °C 6.8 °C 1009.8 hPa WNW 4.7 km/h 11.3 km/h 89% 0.0 mm 0 W/m2
05:15 8.6 °C 6.9 °C 1009.8 hPa WSW 4.7 km/h 9.7 km/h 89% 0.0 mm 0 W/m2
05:20 8.5 °C 6.8 °C 1009.8 hPa NW 4.7 km/h 4.8 km/h 89% 0.0 mm 0 W/m2
05:25 8.4 °C 6.7 °C 1009.8 hPa West 3.2 km/h 11.3 km/h 89% 0.0 mm 0 W/m2
05:30 8.4 °C 6.7 °C 1009.5 hPa NW 6.4 km/h 11.3 km/h 89% 0.0 mm 0 W/m2
05:35 8.4 °C 6.9 °C 1009.5 hPa West 4.7 km/h 11.3 km/h 90% 0.0 mm 0 W/m2
05:40 8.3 °C 6.8 °C 1009.5 hPa NW 6.4 km/h 14.5 km/h 90% 0.0 mm 0 W/m2
05:45 8.3 °C 6.8 °C 1009.5 hPa WSW 7.9 km/h 8 km/h 90% 0.0 mm 0 W/m2
05:50 8.3 °C 6.8 °C 1009.5 hPa West 4.7 km/h 9.7 km/h 90% 0.0 mm 0 W/m2
05:55 8.3 °C 6.8 °C 1009.5 hPa SW 3.2 km/h 11.3 km/h 90% 0.0 mm 0 W/m2
06:00 8.3 °C 6.8 °C 1009.1 hPa West 1.4 km/h 9.7 km/h 90% 0.0 mm 0 W/m2
06:05 8.2 °C 6.7 °C 1009.1 hPa SW 3.2 km/h 9.7 km/h 90% 0.0 mm 0 W/m2
06:10 8.3 °C 6.8 °C 1009.1 hPa West 6.4 km/h 9.7 km/h 90% 0.0 mm 0 W/m2
06:15 8.3 °C 6.8 °C 1009.1 hPa WNW 1.4 km/h 9.7 km/h 90% 0.0 mm 0 W/m2
06:20 8.3 °C 6.9 °C 1009.1 hPa West 3.2 km/h 4.8 km/h 91% 0.0 mm 0 W/m2
06:25 8.3 °C 6.8 °C 1008.8 hPa West 3.2 km/h 4.8 km/h 90% 0.0 mm 0 W/m2
06:30 8.2 °C 6.8 °C 1008.8 hPa WSW 3.2 km/h 9.7 km/h 91% 0.0 mm 0 W/m2
06:35 8.2 °C 6.8 °C 1008.8 hPa West 4.7 km/h 9.7 km/h 91% 0.0 mm 0 W/m2
06:40 8.2 °C 6.8 °C 1008.8 hPa West 6.4 km/h 6.4 km/h 91% 0.0 mm 0 W/m2
06:45 8.2 °C 6.8 °C 1008.5 hPa WSW 1.4 km/h 9.7 km/h 91% 0.0 mm 0 W/m2
06:50 8.2 °C 6.8 °C 1008.5 hPa West 6.4 km/h 6.4 km/h 91% 0.0 mm 0 W/m2
06:55 8.2 °C 6.8 °C 1008.5 hPa WSW 1.4 km/h 8 km/h 91% 0.0 mm 0 W/m2
07:00 8.2 °C 6.8 °C 1008.5 hPa West 4.7 km/h 9.7 km/h 91% 0.0 mm 0 W/m2
07:05 8.2 °C 6.8 °C 1008.5 hPa WSW 1.4 km/h 3.2 km/h 91% 0.0 mm 0 W/m2
07:10 8.1 °C 6.7 °C 1008.1 hPa SW 3.2 km/h 9.7 km/h 91% 0.0 mm 0 W/m2
07:15 8.2 °C 7 °C 1008.1 hPa ESE 3.2 km/h 4.8 km/h 92% 0.0 mm 0 W/m2
07:20 8.2 °C 7 °C 1008.1 hPa Calm   8 km/h 92% 0.0 mm 5 W/m2
07:25 8.2 °C 7 °C 1008.1 hPa Calm   1.6 km/h 92% 0.0 mm 7 W/m2
07:30 8.2 °C 7 °C 1008.1 hPa Calm   1.6 km/h 92% 0.0 mm 9 W/m2
07:35 8.2 °C 7 °C 1008.1 hPa Calm   3.2 km/h 92% 0.0 mm 11 W/m2
07:40 8.2 °C 7 °C 1008.1 hPa WSW 3.2 km/h 3.2 km/h 92% 0.0 mm 16 W/m2
07:45 8.2 °C 7 °C 1008.1 hPa Calm   3.2 km/h 92% 0.0 mm 21 W/m2
07:50 8.2 °C 7 °C 1008.1 hPa South 1.4 km/h 3.2 km/h 92% 0.0 mm 26 W/m2
07:55 8.2 °C 7 °C 1007.8 hPa Calm   3.2 km/h 92% 0.0 mm 28 W/m2
08:00 8.2 °C 7 °C 1007.8 hPa Calm   1.6 km/h 92% 0.0 mm 35 W/m2
08:05 8.2 °C 7 °C 1007.8 hPa West 1.4 km/h 3.2 km/h 92% 0.0 mm 37 W/m2
08:10 8.2 °C 7 °C 1007.8 hPa Calm   3.2 km/h 92% 0.0 mm 40 W/m2
08:15 8.3 °C 7.1 °C 1007.8 hPa Calm   1.6 km/h 92% 0.0 mm 44 W/m2
08:20 8.3 °C 7.1 °C 1007.8 hPa WNW 3.2 km/h 4.8 km/h 92% 0.0 mm 44 W/m2
08:25 8.3 °C 7.1 °C 1007.8 hPa WSW 3.2 km/h 4.8 km/h 92% 0.0 mm 46 W/m2
08:30 8.4 °C 7.2 °C 1007.8 hPa Calm   3.2 km/h 92% 0.0 mm 53 W/m2
08:35 8.4 °C 7 °C 1007.8 hPa WNW 1.4 km/h 1.6 km/h 91% 0.0 mm 60 W/m2
08:40 8.5 °C 7.1 °C 1007.8 hPa SW 1.4 km/h 4.8 km/h 91% 0.0 mm 69 W/m2
08:45 8.6 °C 7.2 °C 1007.8 hPa WSW 3.2 km/h 6.4 km/h 91% 0.0 mm 74 W/m2
08:50 8.6 °C 7.2 °C 1007.5 hPa Calm   3.2 km/h 91% 0.0 mm 72 W/m2
08:55 8.7 °C 7.3 °C 1007.5 hPa West 4.7 km/h 9.7 km/h 91% 0.0 mm 81 W/m2
09:00 8.8 °C 7.4 °C 1007.5 hPa Calm   12.9 km/h 91% 0.0 mm 84 W/m2
09:05 8.9 °C 7.3 °C 1007.5 hPa Calm   11.3 km/h 90% 0.0 mm 88 W/m2
09:10 9.1 °C 7.5 °C 1007.1 hPa WNW 1.4 km/h 6.4 km/h 90% 0.0 mm 95 W/m2
09:15 9.2 °C 7.6 °C 1007.1 hPa WSW 1.4 km/h 8 km/h 90% 0.0 mm 105 W/m2
09:20 9.4 °C 7.8 °C 1007.1 hPa NNW 3.2 km/h 12.9 km/h 90% 0.0 mm 111 W/m2
09:26 9.7 °C 8 °C 1007.1 hPa SW 1.4 km/h 3.2 km/h 89% 0.0 mm 236 W/m2
09:31 9.9 °C 8 °C 1007.1 hPa NW 6.4 km/h 8 km/h 88% 0.0 mm 202 W/m2
09:36 10.3 °C 8.4 °C 1007.1 hPa WNW 1.4 km/h 9.7 km/h 88% 0.0 mm 174 W/m2
09:41 10.7 °C 8.6 °C 1007.1 hPa West 11.1 km/h 11.3 km/h 87% 0.0 mm 162 W/m2
09:46 11 °C 8.6 °C 1007.1 hPa Calm   9.7 km/h 85% 0.0 mm 144 W/m2
09:51 11.1 °C 8.5 °C 1007.1 hPa ENE 4.7 km/h 14.5 km/h 84% 0.0 mm 169 W/m2
09:56 11.1 °C 8.5 °C 1007.1 hPa WNW 3.2 km/h 4.8 km/h 84% 0.0 mm 174 W/m2
10:01 11.1 °C 8.5 °C 1007.1 hPa NNE 6.4 km/h 14.5 km/h 84% 0.0 mm 178 W/m2
10:06 11.1 °C 8.3 °C 1006.8 hPa ESE 1.4 km/h 6.4 km/h 83% 0.0 mm 178 W/m2
10:11 11.1 °C 8.5 °C 1007.1 hPa WSW 7.9 km/h 14.5 km/h 84% 0.0 mm 188 W/m2
10:16 11 °C 8.4 °C 1006.8 hPa WSW 6.4 km/h 11.3 km/h 84% 0.0 mm 153 W/m2
10:21 10.9 °C 8.3 °C 1006.8 hPa NW 4.7 km/h 8 km/h 84% 0.0 mm 139 W/m2
10:26 10.9 °C 8.3 °C 1006.8 hPa West 4.7 km/h 8 km/h 84% 0.0 mm 146 W/m2
10:31 11 °C 8.4 °C 1006.8 hPa NNW 3.2 km/h 6.4 km/h 84% 0.0 mm 141 W/m2
10:36 11.1 °C 8.5 °C 1006.8 hPa WNW 4.7 km/h 6.4 km/h 84% 0.0 mm 123 W/m2
10:41 11 °C 8.6 °C 1006.8 hPa NNE 3.2 km/h 11.3 km/h 85% 0.0 mm 125 W/m2
10:46 11 °C 8.6 °C 1006.8 hPa WSW 1.4 km/h 9.7 km/h 85% 0.0 mm 125 W/m2
10:51 11.1 °C 8.7 °C 1006.8 hPa NW 4.7 km/h 14.5 km/h 85% 0.0 mm 123 W/m2
10:56 11.1 °C 8.7 °C 1006.8 hPa Calm   3.2 km/h 85% 0.0 mm 146 W/m2
11:01 11.1 °C 8.8 °C 1006.4 hPa WNW 4.7 km/h 6.4 km/h 86% 0.0 mm 158 W/m2
11:06 11.2 °C 8.9 °C 1006.4 hPa WSW 4.7 km/h 6.4 km/h 86% 0.0 mm 197 W/m2
11:11 11.3 °C 8.9 °C 1006.4 hPa WNW 4.7 km/h 11.3 km/h 85% 0.0 mm 206 W/m2
11:16 11.3 °C 9 °C 1006.4 hPa SW 4.7 km/h 9.7 km/h 86% 0.0 mm 174 W/m2
11:21 11.4 °C 9 °C 1006.4 hPa NNW 1.4 km/h 6.4 km/h 85% 0.0 mm 176 W/m2
11:26 11.6 °C 9.2 °C 1006.4 hPa WNW 6.4 km/h 9.7 km/h 85% 0.0 mm 174 W/m2
11:31 11.7 °C 8.9 °C 1006.4 hPa NW 1.4 km/h 12.9 km/h 83% 0.0 mm 148 W/m2
11:36 11.8 °C 8.6 °C 1006.1 hPa WSW 7.9 km/h 20.9 km/h 81% 0.0 mm 139 W/m2
11:41 11.8 °C 8.6 °C 1006.1 hPa NE 1.4 km/h 3.2 km/h 81% 0.0 mm 158 W/m2
11:46 11.9 °C 8.7 °C 1006.1 hPa NNE 1.4 km/h 9.7 km/h 81% 0.0 mm 151 W/m2
11:51 12 °C 8.8 °C 1006.1 hPa WNW 3.2 km/h 9.7 km/h 81% 0.0 mm 151 W/m2
11:56 12.1 °C 8.8 °C 1006.1 hPa NNW 6.4 km/h 12.9 km/h 80% 0.0 mm 146 W/m2
12:01 12.1 °C 8.8 °C 1006.1 hPa West 3.2 km/h 6.4 km/h 80% 0.0 mm 146 W/m2
12:06 12.2 °C 8.7 °C 1005.8 hPa WNW 1.4 km/h 4.8 km/h 79% 0.0 mm 125 W/m2
12:11 12.3 °C 8.6 °C 1005.8 hPa NNW 3.2 km/h 9.7 km/h 78% 0.0 mm 135 W/m2
12:16 12.3 °C 8.4 °C 1005.8 hPa WNW 3.2 km/h 6.4 km/h 77% 0.0 mm 169 W/m2
12:21 12.4 °C 8.5 °C 1005.8 hPa WNW 1.4 km/h 8 km/h 77% 0.0 mm 216 W/m2
12:26 12.6 °C 8.5 °C 1005.8 hPa WNW 7.9 km/h 19.3 km/h 76% 0.0 mm 248 W/m2
12:31 12.6 °C 8.5 °C 1005.4 hPa NNW 1.4 km/h 4.8 km/h 76% 0.0 mm 271 W/m2
12:36 12.7 °C 8.4 °C 1005.4 hPa WNW 4.7 km/h 24.1 km/h 75% 0.0 mm 308 W/m2
12:41 12.9 °C 8.6 °C 1005.4 hPa South 7.9 km/h 12.9 km/h 75% 0.0 mm 311 W/m2
12:46 13 °C 8.5 °C 1005.4 hPa SSE 3.2 km/h 22.5 km/h 74% 0.0 mm 264 W/m2
12:51 13.2 °C 8.7 °C 1005.1 hPa WNW 13 km/h 12.9 km/h 74% 0.0 mm 225 W/m2
12:56 13.2 °C 8.5 °C 1005.1 hPa WNW 3.2 km/h 9.7 km/h 73% 0.0 mm 227 W/m2
13:01 13.3 °C 8.6 °C 1005.1 hPa West 9.7 km/h 11.3 km/h 73% 0.0 mm 227 W/m2
13:06 13.4 °C 8.5 °C 1005.1 hPa WNW 13 km/h 12.9 km/h 72% 0.0 mm 255 W/m2
13:11 13.5 °C 8.3 °C 1005.1 hPa NNW 4.7 km/h 9.7 km/h 71% 0.0 mm 234 W/m2
13:16 13.6 °C 8.2 °C 1005.1 hPa NNW 6.4 km/h 14.5 km/h 70% 0.0 mm 207 W/m2
13:21 13.6 °C 8.2 °C 1004.7 hPa North 1.4 km/h 9.7 km/h 70% 0.0 mm 207 W/m2
13:26 13.6 °C 8.4 °C 1004.7 hPa NW 1.4 km/h 3.2 km/h 71% 0.0 mm 227 W/m2
13:31 13.7 °C 8.1 °C 1004.7 hPa WNW 3.2 km/h 4.8 km/h 69% 0.0 mm 241 W/m2
13:36 13.7 °C 7.9 °C 1004.7 hPa WNW 3.2 km/h 12.9 km/h 68% 0.0 mm 244 W/m2
13:41 13.7 °C 7.5 °C 1004.4 hPa NW 4.7 km/h 14.5 km/h 66% 0.0 mm 257 W/m2
13:46 13.7 °C 7.5 °C 1004.4 hPa SW 6.4 km/h 14.5 km/h 66% 0.0 mm 353 W/m2
13:51 13.8 °C 7.8 °C 1004.1 hPa NNW 4.7 km/h 9.7 km/h 67% 0.0 mm 304 W/m2
13:56 14 °C 7.7 °C 1004.1 hPa NW 3.2 km/h 8 km/h 66% 0.0 mm 316 W/m2
14:01 14.2 °C 8.2 °C 1004.1 hPa WNW 4.7 km/h 14.5 km/h 67% 0.0 mm 330 W/m2
14:06 14.3 °C 7.8 °C 1004.1 hPa NNW 7.9 km/h 12.9 km/h 65% 0.0 mm 336 W/m2
14:11 14.4 °C 7.9 °C 1003.7 hPa SSW 4.7 km/h 14.5 km/h 65% 0.0 mm 661 W/m2
14:16 14.8 °C 7.8 °C 1003.7 hPa NW 4.7 km/h 16.1 km/h 63% 0.0 mm 584 W/m2
14:21 15.2 °C 8.2 °C 1003.7 hPa NNW 13 km/h 14.5 km/h 63% 0.0 mm 468 W/m2
14:26 15.3 °C 8.1 °C 1003.7 hPa WNW 11.1 km/h 17.7 km/h 62% 0.0 mm 397 W/m2
14:31 15.1 °C 7.9 °C 1003.4 hPa WNW 11.1 km/h 16.1 km/h 62% 0.0 mm 299 W/m2
14:36 14.8 °C 7.8 °C 1003.4 hPa SW 6.4 km/h 9.7 km/h 63% 0.0 mm 274 W/m2
14:41 14.7 °C 7.7 °C 1003.0 hPa NNW 13 km/h 14.5 km/h 63% 0.0 mm 265 W/m2
14:46 14.7 °C 7.7 °C 1003.0 hPa North 6.4 km/h 8 km/h 63% 0.0 mm 281 W/m2
14:51 14.6 °C 7.6 °C 1003.0 hPa SSE 6.4 km/h 11.3 km/h 63% 0.0 mm 404 W/m2
14:56 14.7 °C 8 °C 1003.0 hPa West 13 km/h 20.9 km/h 64% 0.0 mm 381 W/m2
15:01 15 °C 8 °C 1003.0 hPa South 13 km/h 12.9 km/h 63% 0.0 mm 749 W/m2
15:06 15.2 °C 8 °C 1003.0 hPa SSE 3.2 km/h 12.9 km/h 62% 0.0 mm 260 W/m2
15:11 15.1 °C 8.1 °C 1002.7 hPa North 6.4 km/h 14.5 km/h 63% 0.0 mm 422 W/m2
15:16 15 °C 8 °C 1002.7 hPa WNW 13 km/h 19.3 km/h 63% 0.0 mm 251 W/m2
15:21 14.8 °C 7.8 °C 1002.7 hPa West 11.1 km/h 16.1 km/h 63% 0.0 mm 250 W/m2
15:26 14.8 °C 7.8 °C 1002.4 hPa NNE 6.4 km/h 12.9 km/h 63% 0.0 mm 223 W/m2
15:31 14.9 °C 7.9 °C 1002.4 hPa NNW 3.2 km/h 14.5 km/h 63% 0.0 mm 193 W/m2
15:36 14.8 °C 7.8 °C 1002.4 hPa SSW 6.4 km/h 19.3 km/h 63% 0.0 mm 176 W/m2
15:41 14.8 °C 7.6 °C 1002.0 hPa NW 4.7 km/h 17.7 km/h 62% 0.0 mm 146 W/m2
15:46 14.7 °C 7.7 °C 1002.0 hPa NW 6.4 km/h 11.3 km/h 63% 0.0 mm 139 W/m2
15:51 14.8 °C 7.6 °C 1002.0 hPa North 1.4 km/h 12.9 km/h 62% 0.0 mm 105 W/m2
15:56 14.7 °C 7.5 °C 1002.0 hPa WNW 3.2 km/h 12.9 km/h 62% 0.0 mm 95 W/m2
16:01 14.7 °C 7.5 °C 1002.0 hPa NNW 1.4 km/h 6.4 km/h 62% 0.0 mm 91 W/m2
16:06 14.7 °C 7.5 °C 1002.0 hPa North 7.9 km/h 17.7 km/h 62% 0.0 mm 74 W/m2
16:11 14.6 °C 7.4 °C 1002.0 hPa North 3.2 km/h 12.9 km/h 62% 0.0 mm 65 W/m2
16:16 14.6 °C 7.6 °C 1002.0 hPa North 4.7 km/h 17.7 km/h 63% 0.0 mm 40 W/m2
16:21 14.5 °C 7.5 °C 1002.0 hPa West 3.2 km/h 11.3 km/h 63% 0.0 mm 32 W/m2
16:26 14.3 °C 8 °C 1001.7 hPa West 3.2 km/h 11.3 km/h 66% 0.0 mm 25 W/m2
16:31 13.8 °C 8.2 °C 1002.0 hPa WNW 13 km/h 14.5 km/h 69% 0.2 mm 40 W/m2
16:36 13.3 °C 8.6 °C 1001.7 hPa NW 3.2 km/h 11.3 km/h 73% 0.5 mm 65 W/m2
16:41 12.9 °C 8 °C 1002.0 hPa South 1.4 km/h 19.3 km/h 72% 0.5 mm 69 W/m2
16:46 12.7 °C 8.4 °C 1002.0 hPa North 1.4 km/h 8 km/h 75% 0.5 mm 62 W/m2
16:51 12.5 °C 8.6 °C 1002.0 hPa Calm   19.3 km/h 77% 0.5 mm 54 W/m2
16:56 12.4 °C 8.7 °C 1002.0 hPa Calm   1.6 km/h 78% 0.8 mm 54 W/m2
17:01 12.3 °C 8.9 °C 1002.0 hPa ENE 1.4 km/h 4.8 km/h 80% 1.0 mm 54 W/m2
17:06 12.2 °C 9.2 °C 1002.0 hPa ENE 3.2 km/h 3.2 km/h 82% 1.3 mm 74 W/m2
17:11 12.1 °C 9.1 °C 1001.7 hPa East 3.2 km/h 4.8 km/h 82% 1.3 mm 86 W/m2
17:16 12 °C 9.2 °C 1001.7 hPa Calm   3.2 km/h 83% 1.5 mm 98 W/m2
17:21 11.9 °C 9.1 °C 1001.7 hPa South 1.4 km/h 6.4 km/h 83% 1.5 mm 86 W/m2
17:26 11.8 °C 9.2 °C 1001.7 hPa WNW 3.2 km/h 6.4 km/h 84% 1.5 mm 93 W/m2
17:31 11.7 °C 9.1 °C 1001.4 hPa West 3.2 km/h 8 km/h 84% 1.5 mm 111 W/m2
17:36 11.6 °C 9.2 °C 1001.4 hPa West 1.4 km/h 3.2 km/h 85% 1.3 mm 111 W/m2
17:41 11.6 °C 9.3 °C 1001.0 hPa NW 3.2 km/h 8 km/h 86% 1.3 mm 86 W/m2
17:46 11.5 °C 9.2 °C 1001.0 hPa Calm   1.6 km/h 86% 1.3 mm 56 W/m2
17:51 11.4 °C 9.1 °C 1001.0 hPa ENE 3.2 km/h 6.4 km/h 86% 1.3 mm 46 W/m2
17:56 11.4 °C 9.3 °C 1001.0 hPa South 1.4 km/h 6.4 km/h 87% 1.0 mm 39 W/m2
18:01 11.4 °C 9.3 °C 1000.7 hPa WNW 3.2 km/h 12.9 km/h 87% 0.8 mm 21 W/m2
18:06 11.3 °C 9.2 °C 1000.7 hPa NNW 3.2 km/h 6.4 km/h 87% 0.8 mm 12 W/m2
18:11 11.3 °C 9.2 °C 1000.7 hPa North 3.2 km/h 12.9 km/h 87% 1.0 mm 14 W/m2
18:16 11.2 °C 9.3 °C 1000.7 hPa NNW 7.9 km/h 9.7 km/h 88% 1.0 mm 19 W/m2
18:21 11.2 °C 9.3 °C 1000.7 hPa NE 3.2 km/h 3.2 km/h 88% 1.3 mm 21 W/m2
18:26 11.2 °C 9.5 °C 1000.7 hPa NNW 4.7 km/h 12.9 km/h 89% 1.3 mm 21 W/m2
18:31 11.1 °C 9.4 °C 1000.7 hPa Calm   4.8 km/h 89% 1.3 mm 14 W/m2
18:36 11.1 °C 9.4 °C 1000.3 hPa NNW 3.2 km/h 8 km/h 89% 1.3 mm 7 W/m2
18:41 10.9 °C 9.2 °C 1000.3 hPa Calm   12.9 km/h 89% 1.3 mm 11 W/m2
18:47 10.9 °C 9.3 °C 1000.3 hPa NE 3.2 km/h 4.8 km/h 90% 1.5 mm 16 W/m2
18:52 10.9 °C 9.3 °C 1000.3 hPa NE 1.4 km/h 4.8 km/h 90% 1.5 mm 11 W/m2
18:57 10.9 °C 9.3 °C 1000.3 hPa ENE 1.4 km/h 8 km/h 90% 1.5 mm 0 W/m2
19:02 10.8 °C 9.2 °C 1000.3 hPa NE 3.2 km/h 16.1 km/h 90% 1.8 mm 0 W/m2
19:07 10.8 °C 9.4 °C 1000.3 hPa NW 4.7 km/h 11.3 km/h 91% 1.8 mm 0 W/m2
19:12 10.8 °C 9.4 °C 1000.0 hPa Calm   16.1 km/h 91% 1.5 mm 0 W/m2
19:17 10.8 °C 9.4 °C 1000.0 hPa NW 3.2 km/h 8 km/h 91% 1.5 mm 0 W/m2
19:22 10.7 °C 9.3 °C 1000.0 hPa North 3.2 km/h 9.7 km/h 91% 1.5 mm 0 W/m2
19:27 10.7 °C 9.3 °C 1000.0 hPa North 7.9 km/h 9.7 km/h 91% 1.5 mm 0 W/m2
19:32 10.7 °C 9.3 °C 1000.0 hPa ENE 4.7 km/h 8 km/h 91% 1.8 mm 0 W/m2
19:37 10.7 °C 9.3 °C 1000.0 hPa WNW 4.7 km/h 12.9 km/h 91% 1.8 mm 0 W/m2
19:42 10.6 °C 9.2 °C 999.7 hPa WNW 3.2 km/h 9.7 km/h 91% 2.0 mm 0 W/m2
19:47 10.6 °C 9.4 °C 999.7 hPa WNW 3.2 km/h 12.9 km/h 92% 2.0 mm 0 W/m2
19:52 10.4 °C 9.2 °C 999.7 hPa NNE 4.7 km/h 16.1 km/h 92% 2.3 mm 0 W/m2
19:57 10.4 °C 9.2 °C 999.7 hPa NW 6.4 km/h 8 km/h 92% 2.0 mm 0 W/m2
20:02 10.4 °C 9 °C 999.7 hPa ENE 1.4 km/h 8 km/h 91% 1.8 mm 0 W/m2
20:07 10.3 °C 9.1 °C 999.7 hPa NNW 3.2 km/h 9.7 km/h 92% 1.8 mm 0 W/m2
20:12 10.3 °C 9.1 °C 999.7 hPa NE 3.2 km/h 19.3 km/h 92% 1.8 mm 0 W/m2
20:17 10.3 °C 9.1 °C 999.7 hPa South 3.2 km/h 14.5 km/h 92% 1.8 mm 0 W/m2
20:22 10.2 °C 9 °C 999.7 hPa SW 1.4 km/h 19.3 km/h 92% 1.8 mm 0 W/m2
20:27 10.2 °C 9 °C 999.3 hPa WSW 7.9 km/h 16.1 km/h 92% 1.8 mm 0 W/m2
20:32 10.2 °C 9 °C 999.3 hPa WNW 4.7 km/h 22.5 km/h 92% 1.5 mm 0 W/m2
20:37 10.2 °C 9 °C 999.3 hPa NE 6.4 km/h 17.7 km/h 92% 1.5 mm 0 W/m2
20:42 10.2 °C 9 °C 999.3 hPa NW 13 km/h 22.5 km/h 92% 1.3 mm 0 W/m2
20:47 10.2 °C 9 °C 999.3 hPa NNW 6.4 km/h 16.1 km/h 92% 1.0 mm 0 W/m2
20:52 10.2 °C 9 °C 999.0 hPa SE 1.4 km/h 8 km/h 92% 1.0 mm 0 W/m2
20:57 10.2 °C 9 °C 999.3 hPa NNW 14.3 km/h 19.3 km/h 92% 1.0 mm 0 W/m2
21:02 10.2 °C 9 °C 999.3 hPa ENE 1.4 km/h 20.9 km/h 92% 1.0 mm 0 W/m2
21:07 10.2 °C 9 °C 999.3 hPa NW 16.3 km/h 16.1 km/h 92% 0.8 mm 0 W/m2
21:12 10.2 °C 9 °C 999.3 hPa NNE 3.2 km/h 20.9 km/h 92% 0.8 mm 0 W/m2
21:17 10.2 °C 9 °C 999.3 hPa West 4.7 km/h 11.3 km/h 92% 0.8 mm 0 W/m2
21:22 10.2 °C 9 °C 999.3 hPa NNW 4.7 km/h 17.7 km/h 92% 0.5 mm 0 W/m2
21:27 10.2 °C 9 °C 999.3 hPa NNE 7.9 km/h 8 km/h 92% 0.5 mm 0 W/m2
21:32 10.2 °C 9 °C 999.0 hPa ENE 3.2 km/h 9.7 km/h 92% 0.5 mm 0 W/m2
21:37 10.2 °C 9 °C 999.3 hPa WNW 3.2 km/h 12.9 km/h 92% 0.5 mm 0 W/m2
21:42 10.2 °C 9 °C 999.0 hPa West 4.7 km/h 8 km/h 92% 0.5 mm 0 W/m2
21:47 10.2 °C 9 °C 999.0 hPa NW 3.2 km/h 6.4 km/h 92% 0.5 mm 0 W/m2
21:52 10.1 °C 9 °C 999.0 hPa NNW 1.4 km/h 11.3 km/h 93% 0.5 mm 0 W/m2
21:57 10.2 °C 9.1 °C 999.0 hPa NW 6.4 km/h 6.4 km/h 93% 0.5 mm 0 W/m2
22:02 10.2 °C 9.1 °C 999.0 hPa NNW 3.2 km/h 11.3 km/h 93% 0.5 mm 0 W/m2
22:07 10.2 °C 9.1 °C 999.0 hPa NW 13 km/h 14.5 km/h 93% 0.5 mm 0 W/m2
22:12 10.2 °C 9.1 °C 999.0 hPa NNW 7.9 km/h 11.3 km/h 93% 0.5 mm 0 W/m2
22:17 10.2 °C 9.1 °C 999.0 hPa NW 4.7 km/h 6.4 km/h 93% 0.2 mm 0 W/m2
22:22 10.2 °C 9.1 °C 998.6 hPa North 1.4 km/h 14.5 km/h 93% 0.2 mm 0 W/m2
22:27 10.2 °C 9.1 °C 998.6 hPa WNW 1.4 km/h 3.2 km/h 93% 0.5 mm 0 W/m2
22:32 10.2 °C 9.1 °C 998.6 hPa Calm   8 km/h 93% 0.5 mm 0 W/m2
22:37 10.2 °C 9.1 °C 998.6 hPa NNW 3.2 km/h 9.7 km/h 93% 0.5 mm 0 W/m2
22:42 10.2 °C 9.1 °C 998.6 hPa Calm   4.8 km/h 93% 0.5 mm 0 W/m2
22:47 10.2 °C 9.1 °C 998.6 hPa SSE 3.2 km/h 6.4 km/h 93% 0.2 mm 0 W/m2
22:52 10.3 °C 9.2 °C 998.6 hPa NNW 4.7 km/h 8 km/h 93% 0.2 mm 0 W/m2
22:57 10.3 °C 9.2 °C 998.6 hPa WNW 1.4 km/h 6.4 km/h 93% 0.2 mm 0 W/m2
23:02 10.3 °C 9.2 °C 998.6 hPa NW 3.2 km/h 3.2 km/h 93% 0.5 mm 0 W/m2
23:07 10.3 °C 9.2 °C 998.6 hPa WSW 3.2 km/h 3.2 km/h 93% 0.5 mm 0 W/m2
23:12 10.3 °C 9.2 °C 998.6 hPa NW 1.4 km/h 4.8 km/h 93% 1.0 mm 0 W/m2
23:17 10.3 °C 9.2 °C 998.6 hPa West 13 km/h 29 km/h 93% 1.3 mm 0 W/m2
23:22 10.3 °C 9.2 °C 998.6 hPa West 4.7 km/h 12.9 km/h 93% 1.3 mm 0 W/m2
23:27 10.3 °C 9.2 °C 998.6 hPa SW 16.3 km/h 20.9 km/h 93% 1.0 mm 0 W/m2
23:32 10.3 °C 9.2 °C 998.6 hPa WSW 7.9 km/h 14.5 km/h 93% 1.0 mm 0 W/m2
23:37 10.3 °C 9.2 °C 998.6 hPa West 3.2 km/h 17.7 km/h 93% 1.0 mm 0 W/m2
23:42 10.2 °C 9 °C 998.6 hPa West 3.2 km/h 9.7 km/h 92% 1.0 mm 0 W/m2
23:47 10.2 °C 9.1 °C 998.3 hPa WSW 3.2 km/h 14.5 km/h 93% 1.0 mm 0 W/m2
23:52 10.2 °C 9 °C 998.3 hPa WNW 9.7 km/h 19.3 km/h 92% 1.0 mm 0 W/m2
23:57 10.1 °C 8.9 °C 998.3 hPa West 3.2 km/h 11.3 km/h 92% 1.0 mm 0 W/m2
Juneau County Weather
Compliments of Weather Underground - 4 mb